Flight Track Log - Related Links

Times and Time Zones

All times are in EDT time to prevent confusion due to time zone crossing. See the SWA1044 flight status page for this flight to view local times or setup timezone preferences in your user account.

Time Position Orientation Groundspeed Altitude Reporting Facility
EDT Latitude Longitude Course Direction KTS MPH feet Rate Location/Type
Tue 09:40:13 AM 39.2889 -94.6067 85° East 217 250 4,700  Level Kansas City Center
Tue 09:41:14 AM 39.2828 -94.5169 95° East 269 310 6,000 919 Climbing Kansas City Center
Tue 09:42:17 AM 39.2083 -94.4919 165° South 254 292 6,600 1,268 Climbing Kansas City Center
Tue 09:43:17 AM 39.1347 -94.4906 179° South 272 313 8,600 2,565 Climbing Kansas City Center
Tue 09:44:21 AM 39.0447 -94.4903 180° South 285 328 11,900 3,048 Climbing Kansas City Center
Tue 09:45:21 AM 38.9506 -94.4903 180° South 347 399 14,900 3,581 Climbing Kansas City Center
Tue 09:46:25 AM 38.8411 -94.4900 180° South 350 403 19,300 3,408 Climbing Kansas City Center
Tue 09:47:26 AM 38.7444 -94.4894 180° South 361 415 22,000 2,468 Climbing Kansas City Center
Tue 09:48:29 AM 38.6261 -94.4875 179° South 380 437 24,400 2,226 Climbing Kansas City Center
Tue 09:49:30 AM 38.5178 -94.4892 181° South 401 461 26,600 2,112 Climbing Kansas City Center
Tue 09:50:34 AM 38.4108 -94.4800 176° South 404 465 28,800 1,935 Climbing Kansas City Center
Tue 09:51:34 AM 38.2917 -94.4081 155° Southeast 423 487 30,600 1,742 Climbing Kansas City Center
Tue 09:52:38 AM 38.1889 -94.3414 153° Southeast 429 494 32,400 1,742 Climbing Kansas City Center
Tue 09:53:38 AM 38.0681 -94.2644 153° Southeast 433 498 34,200 1,694 Climbing Kansas City Center
Tue 09:54:42 AM 37.9650 -94.1961 152° Southeast 435 501 35,900 1,344 Climbing Kansas City Center
Tue 09:55:43 AM 37.8553 -94.1272 154° Southeast 430 495 37,000 541 Climbing Kansas City Center
Tue 09:56:44 AM 37.7492 -94.0583 153° Southeast 429 494 37,000  Level Kansas City Center
Tue 09:57:48 AM 37.6208 -93.9764 153° Southeast 430 495 37,000  Level Kansas City Center
Tue 09:58:49 AM 37.5128 -93.9078 153° Southeast 431 496 37,000  Level Kansas City Center
Tue 09:59:52 AM 37.4047 -93.8400 154° Southeast 433 498 37,000  Level Kansas City Center
Tue 10:00:54 AM 37.2956 -93.7703 153° Southeast 436 502 37,000  Level Kansas City Center
Tue 10:01:54 AM 37.1856 -93.7014 153° Southeast 438 504 37,000  Level Kansas City Center
Tue 10:02:58 AM 37.0778 -93.6328 153° Southeast 437 503 37,000  Level Kansas City Center
Tue 10:03:59 AM 36.9494 -93.5533 154° Southeast 432 497 37,000  Level Kansas City Center
Tue 10:05:00 AM 36.8558 -93.4947 153° Southeast 434 499 37,000  Level Kansas City Center
Tue 10:06:04 AM 36.7469 -93.4253 153° Southeast 437 503 37,000  Level Kansas City Center
Tue 10:07:05 AM 36.6172 -93.3461 154° Southeast 433 498 37,000  Level Kansas City Center
Tue 10:08:08 AM 36.5119 -93.2847 155° Southeast 437 503 37,000  Level Memphis Center
Tue 10:09:08 AM 36.4031 -93.2164 153° Southeast 437 503 37,000  Level Memphis Center
Tue 10:10:08 AM 36.2964 -93.1508 154° Southeast 437 503 37,000  Level Memphis Center
Tue 10:11:08 AM 36.1892 -93.0906 156° South 437 503 37,000  Level Memphis Center
Tue 10:12:08 AM 36.0822 -93.0203 152° Southeast 437 503 37,000  Level Memphis Center
Tue 10:13:08 AM 35.9772 -92.9553 153° Southeast 432 497 37,000  Level Memphis Center
Tue 10:14:08 AM 35.8578 -92.8825 154° Southeast 432 497 37,000  Level Memphis Center
Tue 10:15:08 AM 35.7486 -92.8178 154° Southeast 432 497 37,000  Level Memphis Center
Tue 10:16:08 AM 35.6517 -92.7639 156° South 432 497 37,000  Level Memphis Center
Tue 10:17:08 AM 35.5322 -92.6864 152° Southeast 433 498 37,000  Level Memphis Center
Tue 10:18:08 AM 35.4250 -92.6222 154° Southeast 433 498 37,000  Level Memphis Center
Tue 10:19:08 AM 35.3175 -92.5581 154° Southeast 433 498 37,000  Level Memphis Center
Tue 10:20:08 AM 35.2103 -92.4944 154° Southeast 433 498 37,000  Level Memphis Center
Tue 10:21:08 AM 35.1008 -92.4308 155° Southeast 433 498 37,000  Level Memphis Center
Tue 10:22:08 AM 34.9953 -92.3672 154° Southeast 438 504 37,000  Level Memphis Center
Tue 10:23:08 AM 34.8858 -92.3014 154° Southeast 438 504 37,000  Level Memphis Center
Tue 10:24:08 AM 34.7764 -92.2383 155° Southeast 438 504 37,000  Level Memphis Center
Tue 10:25:08 AM 34.6644 -92.1725 154° Southeast 438 504 37,000  Level Memphis Center
Tue 10:26:08 AM 34.5550 -92.1072 154° Southeast 438 504 37,000  Level Memphis Center
Tue 10:27:08 AM 34.4472 -92.0447 154° Southeast 438 504 37,000  Level Memphis Center
Tue 10:28:08 AM 34.3375 -91.9769 153° Southeast 438 504 37,000  Level Memphis Center
Tue 10:29:08 AM 34.2297 -91.9147 154° Southeast 438 504 37,000  Level Memphis Center
Tue 10:30:08 AM 34.1222 -91.8500 154° Southeast 438 504 37,000  Level Memphis Center
Tue 10:31:08 AM 34.0183 -91.7931 156° South 433 498 37,000  Level Memphis Center
Tue 10:32:08 AM 33.9086 -91.7286 154° Southeast 433 498 37,000  Level Memphis Center
Tue 10:33:08 AM 33.7944 -91.6669 156° South 442 509 37,000  Level Memphis Center
Tue 10:34:08 AM 33.6867 -91.6031 154° Southeast 442 509 37,000  Level Memphis Center
Tue 10:35:08 AM 33.5767 -91.5367 153° Southeast 442 509 37,000  Level Memphis Center
Tue 10:36:08 AM 33.4664 -91.4753 155° Southeast 442 509 37,000  Level Memphis Center
Tue 10:37:08 AM 33.3689 -91.4169 153° Southeast 435 501 37,000  Level Memphis Center
Tue 10:38:08 AM 33.2608 -91.3533 154° Southeast 435 501 37,000  Level Memphis Center
Tue 10:39:08 AM 33.1486 -91.2903 155° Southeast 442 509 37,000  Level Memphis Center
Tue 10:40:08 AM 33.0383 -91.2269 154° Southeast 442 509 37,000  Level Memphis Center
Tue 10:41:08 AM 32.9261 -91.1667 156° South 437 503 37,000  Level Memphis Center
Tue 10:42:08 AM 32.8200 -91.1064 154° Southeast 437 503 37,000  Level Memphis Center
Tue 10:43:08 AM 32.7097 -91.0386 153° Southeast 437 503 37,000  Level Memphis Center
Tue 10:44:08 AM 32.5994 -90.9786 155° Southeast 437 503 37,000  Level Memphis Center
Tue 10:45:08 AM 32.4911 -90.9164 154° Southeast 437 503 37,000  Level Memphis Center
Tue 10:46:08 AM 32.3828 -90.8567 155° Southeast 437 503 37,000  Level Memphis Center
Tue 10:47:48 AM 32.1944 -90.7492 154° Southeast 439 505 37,000 -663 Level Houston Center
Tue 10:48:51 AM 32.0847 -90.6892 155° Southeast 434 499 35,200 -1,920 Descending Houston Center
Tue 10:49:53 AM 31.9758 -90.6281 155° Southeast 432 497 33,000 -2,032 Descending Houston Center
Tue 10:50:55 AM 31.8700 -90.5689 155° Southeast 424 488 31,000 -1,935 Descending Houston Center
Tue 10:51:57 AM 31.7492 -90.5022 155° Southeast 403 464 29,000 -968 Descending Houston Center
Tue 10:52:59 AM 31.6481 -90.4472 155° Southeast 399 459 29,000  Level Houston Center
Tue 10:54:01 AM 31.5422 -90.4114 164° South 396 456 29,000 -339 Level Houston Center
Tue 10:55:03 AM 31.4356 -90.3892 170° South 393 452 28,300 -1,306 Descending Houston Center
Tue 10:56:05 AM 31.3300 -90.3667 170° South 388 447 26,300 -1,872 Descending Houston Center
Tue 10:57:08 AM 31.2281 -90.3514 173° South 373 429 24,400 -2,016 Descending Houston Center
Tue 10:58:10 AM 31.1094 -90.3467 178° South 357 411 22,100 -2,081 Descending Houston Center
Tue 10:59:12 AM 31.0153 -90.3431 178° South 345 397 20,100 -2,323 Descending Houston Center
Tue 11:00:14 AM 30.9181 -90.3431 180° South 345 397 17,300 -2,563 Descending Houston Center
Tue 11:00:48 AM 30.8539 -90.3297 170° South 360 414 16,000 -2,032 Descending Houston Center
Tue 11:01:16 AM 30.8206 -90.3239 171° South 351 404 15,200 -1,800 Descending Houston Center
Tue 11:02:18 AM 30.7281 -90.3003 168° South 347 399 13,300 -1,965 Descending Houston Center
Tue 11:03:09 AM 30.6369 -90.2781 168° South 336 387 11,500 -1,714 Descending Houston Center
Tue 11:04:10 AM 30.5467 -90.2597 170° South 300 345 10,100 -1,409 Descending Houston Center
Tue 11:05:04 AM 30.4836 -90.2478 171° South 266 306 8,800 -1,360 Descending Houston Center
Tue 11:05:25 AM 30.4642 -90.2439 170° South 288 331 8,400 -1,770 Descending Houston Center
Tue 11:06:05 AM 30.4081 -90.2364 173° South 253 291 7,000 -1,742 Descending Houston Center
Tue 11:06:27 AM 30.3939 -90.2317 164° South 270 311 6,600 -1,791 Descending Houston Center
Tue 11:07:12 AM 30.3344 -90.2203 171° South 248 285 5,000 -1,839 Descending Houston Center
Tue 11:07:29 AM 30.3267 -90.2169 160° South 258 297 4,700 -984 Descending Houston Center
Tue 11:08:13 AM 30.2692 -90.2061 171° South 235 270 4,000 -677 Descending Houston Center
Tue 11:08:31 AM 30.2519 -90.2011 166° South 241 277 4,000 -197 Level Houston Center
Tue 11:09:14 AM 30.2208 -90.1936 168° South 157 181 3,800 -290 Descending Houston Center
Tue 11:09:33 AM 30.2106 -90.1881 155° Southeast 188 216 3,700 -179 Descending Houston Center
Tue 11:10:21 AM 30.1769 -90.1906 184° South 130 150 3,600 -466 Descending Houston Center
Tue 11:11:16 AM 30.1436 -90.2014 196° South 136 157 2,900 -711 Descending Houston Center
Tue 11:11:37 AM 30.1369 -90.2033 194° South 145 167 2,700 -689 Descending Houston Center
Tue 11:12:17 AM 30.1064 -90.2125 195° South 134 154 2,200 -677 Descending Houston Center
Tue 11:12:39 AM 30.1011 -90.2142 195° South 139 160 2,000 -667 Descending Houston Center
Tue 11:13:11 AM 30.0733 -90.2236 196° South 135 155 1,600 -774 Descending Houston Center
Tue 11:13:41 AM 30.0583 -90.2278 194° South 135 155 1,200 -787 Descending Houston Center
Tue 11:14:12 AM 30.0403 -90.2344 198° South 126 145 800 -677 Descending Houston Center
Tue 11:14:43 AM 30.0247 -90.2389 194° South 130 150 500 -581 Descending Houston Center
Tue 11:16:00 AM 29.9833 -90.2500 190° South  Level FlightAware Approximate
Tue 11:23:00 AM 29.9934 -90.2580 190° South  Level Estimated
Tue 11:24:00 AM 29.9934 -90.2580 190° South  Level Estimated
Tue 11:25:00 AM 29.9934 -90.2580 190° South  Level Estimated

Login

Don't have an account? Register now (free) for customized features, flight alerts, and more!